N272LP KTEB-KTEB

Flight info

Callsign N272LP
Flight time 0h 3m
Altitude
Route
Aircraft

Departure

Time 2026-05-06 00:59
Airport Teterboro Airport (KTEB)

Arrival

Time 2026-05-06 01:02
Airport Teterboro Airport (KTEB)
Time Latitude Longitude Altitude Speed Heading
2026-05-06 00:59 40.84236 -74.05055 1153 ft 113 kts 45°
2026-05-06 00:59 40.84793 -74.04246 1218 ft 123 kts 40°
2026-05-06 00:59 40.85422 -74.03450 1290 ft 126 kts 39°
2026-05-06 01:00 40.85994 -74.02721 1211 ft 108 kts 41°
2026-05-06 01:00 40.86515 -74.02204 1217 ft 76 kts
2026-05-06 01:00 40.86975 -74.02394 1107 ft 72 kts 313°
2026-05-06 01:00 40.87234 -74.02928 1057 ft 69 kts 282°
2026-05-06 01:01 40.87228 -74.03351 992 ft 72 kts 252°
2026-05-06 01:01 40.86903 -74.03808 784 ft 71 kts 224°
2026-05-06 01:01 40.86558 -74.04230 591 ft 65 kts 233°
2026-05-06 01:01 40.86279 -74.04673 392 ft 60 kts 235°
2026-05-06 01:02 40.85985 -74.05094 211 ft 66 kts 234°
2026-05-06 01:02 40.85688 -74.05531 23 ft 57 kts 231°
2026-05-06 01:02 40.85487 -74.05834 11 ft 38 kts 231°
2026-05-06 01:02 40.85230 -74.06201 103 ft 61 kts 226°
2026-05-06 01:03 40.84918 -74.06607 311 ft 62 kts 226°
2026-05-06 01:03 40.84626 -74.07032 498 ft 64 kts 228°
2026-05-06 01:03 40.84255 -74.07434 714 ft 67 kts 203°
2026-05-06 01:03 40.83841 -74.07154 908 ft 80 kts 136°
2026-05-06 01:04 40.83604 -74.06478 1082 ft 90 kts 91°
2026-05-06 01:04 40.83829 -74.05642 1148 ft 106 kts 47°
2026-05-06 01:04 40.84397 -74.04931 1141 ft 117 kts 36°
2026-05-06 01:04 40.85034 -74.04309 1040 ft 109 kts 27°
2026-05-06 01:05 40.85639 -74.03837 998 ft 92 kts 23°
2026-05-06 01:05 40.86160 -74.03759 878 ft 69 kts 322°
2026-05-06 01:05 40.86506 -74.04147 757 ft 61 kts 296°
2026-05-06 01:05 40.86404 -74.04602 613 ft 65 kts 215°
2026-05-06 01:06 40.86059 -74.04990 336 ft 65 kts 245°
2026-05-06 01:06 40.85779 -74.05425 86 ft 60 kts 224°
2026-05-06 01:06 40.85527 -74.05764 11 ft 40 kts 231°
2026-05-06 01:06 40.85377 -74.05998 9 ft 28 kts 225°
2026-05-06 01:07 40.85278 -74.06148 10 ft 13 kts 237°
2026-05-06 01:07 40.85294 -74.06228 10 ft 9 kts 307°
2026-05-06 01:07 40.85310 -74.06255 10 ft 0 kts 313°
2026-05-06 01:08 40.85318 -74.06270 10 ft 9 kts 305°
2026-05-06 01:08 40.85361 -74.06338 10 ft 7 kts 311°
2026-05-06 01:08 40.85389 -74.06388 10 ft 6 kts 305°
2026-05-06 01:09 40.85415 -74.06433 10 ft 6 kts 310°
2026-05-06 01:09 40.85424 -74.06449 10 ft 1 kts 329°
2026-05-06 01:09 40.85433 -74.06449 10 ft 1 kts 28°
2026-05-06 01:09 40.85437 -74.06444 10 ft 1 kts 86°
2026-05-06 01:10 40.85432 -74.06429 10 ft 0 kts 120°
2026-05-06 01:28 40.85432 -74.06430 10 ft 0 kts 120°
2026-05-06 02:53 40.85432 -74.06431 10 ft 0 kts 120°